createdAt,value
2022-10-17T00:01:57.647Z,93.34
2022-10-17T00:04:30.399Z,93.04
2022-10-17T00:07:01.746Z,92.67
2022-10-17T00:09:36.069Z,93.33
2022-10-17T00:12:09.648Z,94.02
2022-10-17T00:14:41.239Z,94.36
2022-10-17T00:17:12.275Z,94.15
2022-10-17T00:19:47.829Z,94.35
2022-10-17T00:22:21.578Z,94.03
2022-10-17T00:25:28.805Z,94.13
2022-10-17T00:28:42.437Z,93.68
2022-10-17T00:32:02.219Z,94.31
2022-10-17T00:37:52.196Z,93.81
2022-10-17T00:44:21.027Z,93.11
2022-10-17T00:47:02.891Z,94.07
2022-10-17T00:52:39.869Z,93.76
2022-10-17T00:55:45.801Z,93.52
2022-10-17T01:39:38.313Z,94.44
2022-10-17T01:42:34.037Z,94.56
2022-10-17T01:48:24.231Z,92.72
2022-10-17T01:51:10.987Z,92.92
2022-10-17T01:53:49.554Z,91.44
2022-10-17T01:56:24.565Z,91.20
2022-10-17T01:59:03.036Z,91.33
2022-10-17T02:01:40.275Z,91.95
2022-10-17T02:04:17.636Z,90.50
2022-10-17T02:06:49.401Z,89.26
2022-10-17T02:09:25.914Z,88.70
2022-10-17T02:12:15.776Z,88.17
2022-10-17T02:15:07.505Z,89.00
2022-10-17T02:18:14.160Z,89.60
2022-10-17T02:21:14.530Z,91.04
2022-10-17T02:24:12.264Z,92.93
2022-10-17T02:27:14.629Z,94.11
2022-10-17T02:30:01.032Z,94.85
2022-10-17T02:32:49.473Z,94.88
2022-10-17T02:35:53.718Z,95.51
2022-10-17T02:46:02.203Z,96.23
2022-10-17T02:48:49.874Z,97.14
2022-10-17T02:51:37.741Z,96.72
2022-10-17T02:57:45.139Z,96.44
2022-10-17T03:00:18.314Z,95.75
2022-10-17T03:02:51.036Z,95.26
2022-10-17T03:05:26.382Z,94.62
2022-10-17T03:07:57.759Z,93.79
2022-10-17T03:10:28.576Z,93.49
2022-10-17T03:13:01.983Z,92.89
2022-10-17T03:15:32.811Z,91.24
2022-10-17T03:18:03.599Z,91.04
2022-10-17T03:20:36.069Z,91.46
2022-10-17T03:23:06.999Z,89.85
2022-10-17T03:25:37.845Z,91.64
2022-10-17T03:28:08.747Z,92.62
2022-10-17T03:30:42.212Z,92.37
2022-10-17T03:33:13.036Z,91.04
2022-10-17T03:35:45.681Z,86.98
2022-10-17T03:38:16.586Z,87.76
2022-10-17T03:40:47.465Z,85.82
2022-10-17T03:43:18.446Z,85.36
2022-10-17T03:45:49.273Z,87.56
2022-10-17T03:48:20.173Z,87.57
2022-10-17T03:50:52.875Z,87.54
2022-10-17T03:53:23.605Z,87.58
2022-10-17T03:55:54.454Z,86.51
2022-10-17T03:58:25.291Z,86.77
2022-10-17T04:00:56.126Z,86.95
2022-10-17T04:03:27.012Z,86.28
2022-10-17T04:06:02.519Z,86.06
2022-10-17T04:08:33.678Z,85.90
2022-10-17T04:11:10.710Z,86.58
2022-10-17T04:13:41.779Z,87.40
2022-10-17T04:16:17.486Z,87.81
2022-10-17T04:18:48.447Z,86.53
2022-10-17T04:21:25.564Z,86.72
2022-10-17T04:24:03.851Z,86.38
2022-10-17T04:26:34.609Z,85.60
2022-10-17T04:29:05.430Z,85.06
2022-10-17T04:31:36.107Z,85.76
2022-10-17T04:34:07.062Z,86.37
2022-10-17T04:36:39.933Z,87.47
2022-10-17T04:39:11.056Z,87.17
2022-10-17T04:41:41.979Z,86.84
2022-10-17T04:44:14.123Z,86.18
2022-10-17T04:46:44.983Z,86.46
2022-10-17T04:49:15.779Z,85.60
2022-10-17T04:51:48.192Z,85.54
2022-10-17T04:54:19.818Z,86.20
2022-10-17T04:56:51.005Z,86.37
2022-10-17T04:59:21.771Z,86.39
2022-10-17T05:01:52.960Z,85.05
2022-10-17T05:04:24.872Z,85.42
2022-10-17T05:06:57.604Z,86.09
2022-10-17T05:09:28.583Z,85.61
2022-10-17T05:11:59.501Z,85.27
2022-10-17T05:14:30.484Z,84.26
2022-10-17T05:17:01.360Z,83.64
2022-10-17T05:19:32.312Z,83.80
2022-10-17T05:22:04.797Z,82.78
2022-10-17T05:24:35.573Z,83.04
2022-10-17T05:27:06.521Z,83.05
2022-10-17T05:29:38.395Z,82.96
2022-10-17T05:32:12.527Z,83.24
2022-10-17T05:35:43.442Z,83.06
2022-10-17T05:43:11.280Z,84.13
2022-10-17T05:46:06.497Z,83.62
2022-10-17T05:48:53.870Z,83.96
2022-10-17T05:51:59.241Z,83.92
2022-10-17T05:54:46.476Z,82.79
2022-10-17T05:57:51.363Z,81.09
2022-10-17T06:00:59.575Z,81.64
2022-10-17T06:04:11.374Z,82.68
2022-10-17T06:06:46.079Z,81.94
2022-10-17T06:13:20.328Z,82.30
2022-10-17T06:16:24.125Z,82.75
2022-10-17T06:53:21.595Z,79.79
2022-10-17T07:59:46.314Z,83.72
2022-10-17T08:02:27.153Z,83.41
2022-10-17T08:04:58.609Z,83.67
2022-10-17T08:07:44.708Z,84.10
2022-10-17T08:10:35.231Z,85.14
2022-10-17T08:13:15.031Z,86.17
2022-10-17T08:15:47.413Z,86.88
2022-10-17T08:18:19.553Z,87.20
2022-10-17T08:20:56.748Z,87.17
2022-10-17T08:23:32.372Z,87.39
2022-10-17T08:26:11.405Z,87.44
2022-10-17T08:28:53.694Z,87.31
2022-10-17T08:32:00.192Z,87.35
2022-10-17T08:34:35.299Z,87.90
2022-10-17T08:37:30.112Z,87.65
2022-10-17T08:47:11.029Z,88.26
2022-10-17T08:49:49.569Z,88.72
2022-10-17T08:52:37.793Z,88.99
2022-10-17T08:57:54.484Z,89.91
2022-10-17T09:00:32.264Z,90.40
2022-10-17T09:03:21.498Z,90.44
2022-10-17T09:05:58.957Z,90.56
2022-10-17T09:08:44.091Z,90.68
2022-10-17T09:11:28.257Z,91.07
2022-10-17T09:14:17.983Z,91.26
2022-10-17T09:21:31.502Z,91.13
2022-10-17T09:25:12.811Z,91.45
2022-10-17T09:28:22.420Z,91.23
2022-10-17T09:31:24.703Z,91.45
2022-10-17T09:34:01.390Z,91.99
2022-10-17T09:36:45.706Z,92.29
2022-10-17T09:39:24.027Z,92.98
2022-10-17T09:42:11.495Z,92.83
2022-10-17T09:44:50.985Z,93.25
2022-10-17T09:52:22.914Z,93.10
2022-10-17T09:58:10.683Z,93.51
2022-10-17T10:01:34.624Z,94.08
2022-10-17T10:05:23.962Z,93.71
2022-10-17T10:11:23.115Z,94.18
2022-10-17T10:15:17.927Z,94.82
2022-10-17T10:17:55.318Z,94.31
2022-10-17T10:23:41.166Z,93.81
2022-10-17T10:26:34.063Z,92.90
2022-10-17T10:29:23.926Z,92.14
2022-10-17T10:31:54.801Z,91.71
2022-10-17T10:35:04.005Z,91.55
2022-10-17T10:38:13.784Z,90.14
2022-10-17T10:41:01.437Z,89.58
2022-10-17T10:44:23.759Z,90.55
2022-10-17T10:50:49.976Z,90.67
2022-10-17T10:53:37.179Z,90.92
2022-10-17T10:56:20.414Z,91.30
2022-10-17T10:59:00.331Z,91.14
2022-10-17T11:01:35.437Z,91.12
2022-10-17T11:14:43.851Z,92.27
2022-10-17T11:17:25.457Z,92.20
2022-10-17T11:20:07.360Z,92.83
2022-10-17T11:22:44.193Z,92.66
2022-10-17T11:25:34.084Z,91.97
2022-10-17T11:28:07.024Z,91.88
2022-10-17T11:30:53.650Z,92.02
2022-10-17T11:33:30.023Z,92.16
2022-10-17T11:36:03.420Z,92.11
2022-10-17T11:38:39.243Z,91.84
2022-10-17T11:41:18.691Z,91.23
2022-10-17T11:44:03.814Z,90.63
2022-10-17T11:46:37.978Z,90.17
2022-10-17T11:49:17.389Z,89.49
2022-10-17T11:52:02.823Z,89.10
2022-10-17T11:54:38.521Z,88.86
2022-10-17T11:57:21.900Z,88.35
2022-10-17T12:00:16.135Z,88.32
2022-10-17T12:03:16.172Z,88.57
2022-10-17T12:06:11.281Z,89.89
2022-10-17T12:08:50.548Z,90.01
2022-10-17T12:11:27.888Z,90.48
2022-10-17T12:14:05.822Z,90.47
2022-10-17T12:19:34.758Z,88.92
2022-10-17T12:22:20.569Z,88.48
2022-10-17T12:25:02.091Z,88.92
2022-10-17T12:28:10.076Z,88.40
2022-10-17T12:31:06.242Z,88.78
2022-10-17T12:33:41.452Z,89.45
2022-10-17T12:36:44.827Z,89.26
2022-10-17T12:40:07.545Z,88.01
2022-10-17T12:51:41.209Z,90.15
2022-10-17T12:54:37.819Z,90.30
2022-10-17T12:58:04.434Z,91.16
2022-10-17T13:01:24.305Z,91.58
2022-10-17T13:03:56.531Z,92.07
2022-10-17T13:06:30.500Z,92.83
2022-10-17T13:09:11.090Z,92.98
2022-10-17T13:11:43.420Z,93.11
2022-10-17T13:14:25.597Z,92.44
2022-10-17T13:16:58.475Z,92.23
2022-10-17T13:19:34.425Z,92.29
2022-10-17T13:22:07.743Z,92.81
2022-10-17T13:24:43.621Z,92.70
2022-10-17T13:27:28.397Z,92.48
2022-10-17T13:30:02.252Z,92.79
2022-10-17T13:32:40.632Z,92.67
2022-10-17T13:35:14.193Z,92.94
2022-10-17T13:37:50.250Z,92.57
2022-10-17T13:43:22.663Z,92.27
2022-10-17T13:45:59.885Z,92.62
2022-10-17T13:48:39.739Z,92.64
2022-10-17T13:51:11.422Z,92.63
2022-10-17T13:53:45.130Z,92.76
2022-10-17T13:56:28.349Z,92.77
2022-10-17T13:59:02.894Z,92.27
2022-10-17T14:01:35.699Z,92.44
2022-10-17T14:04:17.073Z,92.41
2022-10-17T14:17:29.610Z,92.68
2022-10-17T14:23:21.863Z,92.39
2022-10-17T14:25:49.070Z,92.11
2022-10-17T14:28:20.369Z,92.55
2022-10-17T14:30:57.297Z,92.96
2022-10-17T14:33:32.346Z,93.24
2022-10-17T14:36:04.988Z,93.23
2022-10-17T14:38:36.922Z,93.36
2022-10-17T14:44:05.785Z,93.37
2022-10-17T14:46:39.894Z,93.17
2022-10-17T14:49:25.216Z,93.49
2022-10-17T14:52:31.833Z,93.80
2022-10-17T14:55:15.181Z,93.97
2022-10-17T14:57:48.132Z,95.51
2022-10-17T15:00:20.630Z,95.65
2022-10-17T15:02:53.129Z,96.18
2022-10-17T15:05:26.638Z,96.11
2022-10-17T15:07:57.620Z,96.27
2022-10-17T15:10:37.521Z,96.17
2022-10-17T15:13:27.134Z,96.45
2022-10-17T15:15:58.652Z,96.27
2022-10-17T15:18:29.620Z,96.30
2022-10-17T15:21:05.245Z,96.53
2022-10-17T15:23:48.739Z,97.15
2022-10-17T15:26:21.774Z,96.70
2022-10-17T15:28:53.448Z,96.36
2022-10-17T15:31:25.903Z,95.87
2022-10-17T15:33:56.877Z,94.84
2022-10-17T15:36:31.516Z,94.93
2022-10-17T15:39:04.147Z,95.25
2022-10-17T15:41:35.989Z,95.00
2022-10-17T15:44:06.989Z,95.32
2022-10-17T15:46:39.010Z,96.04
2022-10-17T15:49:14.427Z,96.45
2022-10-17T15:51:49.369Z,96.41
2022-10-17T15:54:22.786Z,96.50
2022-10-17T15:56:58.990Z,96.83
2022-10-17T15:59:33.521Z,96.70
2022-10-17T16:02:04.443Z,96.21
2022-10-17T16:04:35.320Z,96.40
2022-10-17T16:07:08.216Z,96.27
2022-10-17T16:09:41.972Z,96.66
2022-10-17T16:12:18.342Z,96.79
2022-10-17T16:14:49.417Z,97.55
2022-10-17T16:17:20.568Z,97.26
2022-10-17T16:19:51.505Z,97.03
2022-10-17T16:22:28.201Z,97.28
2022-10-17T16:25:00.600Z,97.08
2022-10-17T16:27:34.064Z,97.17
2022-10-17T16:30:06.391Z,96.76
2022-10-17T16:32:39.760Z,97.02
2022-10-17T16:35:14.687Z,96.92
2022-10-17T16:37:47.380Z,96.85
2022-10-17T16:40:20.939Z,96.75
2022-10-17T16:42:51.937Z,96.75
2022-10-17T16:45:25.093Z,96.46
2022-10-17T16:47:56.013Z,96.46
2022-10-17T16:50:26.938Z,96.50
2022-10-17T16:52:59.653Z,95.90
2022-10-17T16:55:30.563Z,95.53
2022-10-17T16:58:04.499Z,94.94
2022-10-17T17:00:35.433Z,94.58
2022-10-17T17:03:09.179Z,94.61
2022-10-17T17:05:42.948Z,94.44
2022-10-17T17:08:18.049Z,94.32
2022-10-17T17:10:50.729Z,94.32
2022-10-17T17:13:21.980Z,94.75
2022-10-17T17:15:54.592Z,94.75
2022-10-17T17:18:25.607Z,94.51
2022-10-17T17:21:02.322Z,94.63
2022-10-17T17:23:36.947Z,94.13
2022-10-17T17:26:10.510Z,93.72
2022-10-17T17:28:42.632Z,93.77
2022-10-17T17:31:15.306Z,94.04
2022-10-17T17:33:47.658Z,94.41
2022-10-17T17:36:21.453Z,94.02
2022-10-17T17:38:56.827Z,93.97
2022-10-17T17:41:28.346Z,93.86
2022-10-17T17:43:59.417Z,93.21
2022-10-17T17:46:30.513Z,93.33
2022-10-17T17:49:01.496Z,93.84
2022-10-17T17:51:32.809Z,93.37
2022-10-17T17:54:06.163Z,92.92
2022-10-17T17:56:37.192Z,93.28
2022-10-17T17:59:08.101Z,93.72
2022-10-17T18:01:39.961Z,93.58
2022-10-17T18:04:11.664Z,93.83
2022-10-17T18:06:43.017Z,93.77
2022-10-17T18:09:15.610Z,94.31
2022-10-17T18:11:46.613Z,94.88
2022-10-17T18:14:17.676Z,95.05
2022-10-17T18:16:48.535Z,94.83
2022-10-17T18:19:19.768Z,95.24
2022-10-17T18:21:50.495Z,95.42
2022-10-17T18:24:22.967Z,95.44
2022-10-17T18:26:57.016Z,95.65
2022-10-17T18:29:27.721Z,95.20
2022-10-17T18:31:58.741Z,94.81
2022-10-17T18:34:29.961Z,94.97
2022-10-17T18:37:03.520Z,94.55
2022-10-17T18:39:36.278Z,94.48
2022-10-17T18:42:07.305Z,94.16
2022-10-17T18:44:38.167Z,94.46
2022-10-17T18:47:08.909Z,94.43
2022-10-17T18:49:39.843Z,94.61
2022-10-17T18:52:10.809Z,94.63
2022-10-17T18:54:43.852Z,94.14
2022-10-17T18:57:14.690Z,94.31
2022-10-17T18:59:45.547Z,94.80
2022-10-17T19:02:16.666Z,94.48
2022-10-17T19:07:21.110Z,94.13
2022-10-17T19:09:54.287Z,93.96
2022-10-17T19:12:25.389Z,94.15
2022-10-17T19:14:57.273Z,93.69
2022-10-17T19:17:29.218Z,93.53
2022-10-17T19:20:00.821Z,94.31
2022-10-17T19:22:36.359Z,94.94
2022-10-17T19:25:13.077Z,94.82
2022-10-17T19:27:44.264Z,94.30
2022-10-17T19:30:45.031Z,94.08
2022-10-17T19:33:16.950Z,94.37
2022-10-17T19:36:27.640Z,94.59
2022-10-17T19:42:43.188Z,94.97
2022-10-17T19:45:17.691Z,94.93
2022-10-17T19:51:51.444Z,94.62
2022-10-17T19:55:49.708Z,94.59
2022-10-17T21:39:45.168Z,93.26
2022-10-17T21:46:58.033Z,93.70
2022-10-17T21:49:41.663Z,94.17
2022-10-17T22:13:34.461Z,93.46
2022-10-17T22:16:40.064Z,93.19
2022-10-17T22:23:15.166Z,92.59
2022-10-17T22:26:00.996Z,92.80
2022-10-17T22:28:57.213Z,92.78
2022-10-17T22:31:40.007Z,93.27
2022-10-17T22:34:16.938Z,93.32
2022-10-17T22:36:57.414Z,93.38
2022-10-17T22:39:34.788Z,92.92
2022-10-17T22:42:05.942Z,92.34
2022-10-17T22:44:42.062Z,92.10
2022-10-17T22:47:18.288Z,91.65
2022-10-17T22:50:41.633Z,91.13
2022-10-17T22:57:09.259Z,89.88
2022-10-17T22:59:47.492Z,90.18
2022-10-17T23:02:29.918Z,90.60
2022-10-17T23:05:25.249Z,89.50
2022-10-17T23:08:04.500Z,89.42
2022-10-17T23:10:38.922Z,88.82
2022-10-17T23:13:27.189Z,88.41
2022-10-17T23:16:07.590Z,88.04
2022-10-17T23:19:02.220Z,87.55
2022-10-17T23:21:44.813Z,86.92
2022-10-17T23:27:38.624Z,82.53
2022-10-17T23:30:14.324Z,81.54
2022-10-17T23:32:52.010Z,81.15
2022-10-17T23:35:23.053Z,79.09
2022-10-17T23:37:54.165Z,77.60
2022-10-17T23:40:28.434Z,76.51
2022-10-17T23:42:59.764Z,77.30
2022-10-17T23:45:35.955Z,76.60
2022-10-17T23:48:12.378Z,76.00
2022-10-17T23:50:44.490Z,76.38
2022-10-17T23:53:18.392Z,76.17
2022-10-17T23:55:49.521Z,76.38
2022-10-17T23:58:20.825Z,76.44
